createdAt,value
2022-08-26T00:01:44.304Z,100839.56
2022-08-26T00:04:13.260Z,100820.06
2022-08-26T00:06:42.382Z,100832.13
2022-08-26T00:09:16.011Z,100827.88
2022-08-26T00:11:46.624Z,100821.44
2022-08-26T00:14:15.217Z,100828.22
2022-08-26T00:16:47.466Z,100837.78
2022-08-26T00:19:16.875Z,100822.91
2022-08-26T00:21:44.042Z,100828.34
2022-08-26T00:24:11.239Z,100820.53
2022-08-26T00:26:39.254Z,100828.19
2022-08-26T00:29:08.548Z,100829.00
2022-08-26T00:31:36.983Z,100825.81
2022-08-26T00:34:04.821Z,100822.22
2022-08-26T00:36:32.275Z,100817.78
2022-08-26T00:38:59.578Z,100819.88
2022-08-26T00:41:28.804Z,100807.97
2022-08-26T00:43:55.783Z,100812.78
2022-08-26T00:46:29.353Z,100810.72
2022-08-26T00:49:12.238Z,100812.34
2022-08-26T00:51:54.699Z,100815.09
2022-08-26T00:54:26.775Z,100816.34
2022-08-26T00:56:59.855Z,100817.75
2022-08-26T00:59:29.192Z,100820.03
2022-08-26T01:02:02.710Z,100814.28
2022-08-26T01:04:32.459Z,100811.91
2022-08-26T01:07:00.486Z,100807.69
2022-08-26T01:09:28.464Z,100818.00
2022-08-26T01:11:59.713Z,100814.41
2022-08-26T01:14:34.322Z,100804.03
2022-08-26T01:17:05.976Z,100808.66
2022-08-26T01:19:45.049Z,100814.56
2022-08-26T01:22:31.353Z,100812.84
2022-08-26T01:25:01.065Z,100820.81
2022-08-26T01:27:32.902Z,100819.31
2022-08-26T01:30:01.906Z,100825.22
2022-08-26T01:32:29.821Z,100823.50
2022-08-26T01:34:57.183Z,100821.34
2022-08-26T01:37:28.775Z,100819.38
2022-08-26T01:39:57.312Z,100824.41
2022-08-26T01:42:26.185Z,100825.00
2022-08-26T01:45:01.404Z,100826.03
2022-08-26T01:47:31.063Z,100821.28
2022-08-26T01:50:02.881Z,100824.31
2022-08-26T01:52:32.770Z,100819.00
2022-08-26T01:55:00.925Z,100828.50
2022-08-26T01:57:28.754Z,100828.03
2022-08-26T02:00:00.087Z,100817.63
2022-08-26T02:02:27.785Z,100830.50
2022-08-26T02:05:02.258Z,100824.13
2022-08-26T02:07:30.394Z,100819.59
2022-08-26T02:10:00.345Z,100826.59
2022-08-26T02:12:27.849Z,100814.88
2022-08-26T02:15:00.795Z,100821.41
2022-08-26T02:17:35.696Z,100819.03
2022-08-26T02:20:03.516Z,100826.25
2022-08-26T02:22:31.783Z,100821.13
2022-08-26T02:25:01.438Z,100815.16
2022-08-26T02:27:35.033Z,100824.06
2022-08-26T02:30:19.109Z,100822.56
2022-08-26T02:32:46.885Z,100819.16
2022-08-26T02:35:20.498Z,100809.63
2022-08-26T02:37:49.979Z,100811.50
2022-08-26T02:40:24.221Z,100811.69
2022-08-26T02:42:53.047Z,100810.56
2022-08-26T02:45:23.878Z,100817.56
2022-08-26T02:47:52.505Z,100809.50
2022-08-26T02:50:20.658Z,100801.84
2022-08-26T02:52:48.375Z,100806.31
2022-08-26T02:55:15.697Z,100806.00
2022-08-26T02:57:43.039Z,100811.78
2022-08-26T03:00:14.483Z,100803.72
2022-08-26T03:02:42.066Z,100799.47
2022-08-26T03:05:10.106Z,100805.16
2022-08-26T03:07:37.657Z,100794.97
2022-08-26T03:10:08.502Z,100795.78
2022-08-26T03:12:36.196Z,100805.53
2022-08-26T03:15:17.402Z,100793.41
2022-08-26T03:17:47.803Z,100795.31
2022-08-26T03:20:17.423Z,100791.28
2022-08-26T03:22:45.609Z,100799.69
2022-08-26T03:25:16.172Z,100789.94
2022-08-26T03:27:43.351Z,100789.09
2022-08-26T03:30:31.257Z,100789.28
2022-08-26T03:32:58.655Z,100802.34
2022-08-26T03:35:25.827Z,100790.88
2022-08-26T03:37:54.072Z,100792.97
2022-08-26T03:40:21.645Z,100789.72
2022-08-26T03:42:50.742Z,100792.47
2022-08-26T03:45:18.594Z,100786.50
2022-08-26T03:47:47.504Z,100783.94
2022-08-26T03:50:22.635Z,100785.63
2022-08-26T03:52:52.797Z,100785.16
2022-08-26T03:55:23.689Z,100788.13
2022-08-26T03:57:51.610Z,100788.66
2022-08-26T04:00:19.153Z,100790.94
2022-08-26T04:02:51.117Z,100790.47
2022-08-26T04:05:22.767Z,100786.97
2022-08-26T04:07:50.612Z,100788.34
2022-08-26T04:10:22.114Z,100777.56
2022-08-26T04:12:56.013Z,100778.09
2022-08-26T04:15:27.013Z,100774.97
2022-08-26T04:17:53.927Z,100768.75
2022-08-26T04:20:23.338Z,100776.34
2022-08-26T04:22:50.780Z,100776.22
2022-08-26T04:25:18.622Z,100765.66
2022-08-26T04:27:48.315Z,100771.78
2022-08-26T04:30:15.890Z,100764.09
2022-08-26T04:32:43.750Z,100769.13
2022-08-26T04:35:10.769Z,100774.34
2022-08-26T04:37:37.746Z,100778.50
2022-08-26T04:40:06.470Z,100771.00
2022-08-26T04:42:33.715Z,100775.44
2022-08-26T04:45:05.717Z,100775.09
2022-08-26T04:47:33.014Z,100777.63
2022-08-26T04:50:00.252Z,100789.50
2022-08-26T04:52:29.181Z,100782.59
2022-08-26T04:54:57.894Z,100781.19
2022-08-26T04:57:24.851Z,100773.50
2022-08-26T04:59:51.769Z,100789.47
2022-08-26T05:02:19.287Z,100793.06
2022-08-26T05:04:46.353Z,100805.25
2022-08-26T05:07:13.319Z,100795.31
2022-08-26T05:09:40.764Z,100794.66
2022-08-26T05:12:08.000Z,100799.41
2022-08-26T05:14:36.099Z,100801.59
2022-08-26T05:17:03.915Z,100806.63
2022-08-26T05:19:31.658Z,100799.22
2022-08-26T05:21:59.864Z,100803.13
2022-08-26T05:24:26.754Z,100799.56
2022-08-26T05:26:54.492Z,100792.47
2022-08-26T05:29:24.013Z,100791.47
2022-08-26T05:31:52.235Z,100798.59
2022-08-26T05:34:19.982Z,100786.25
2022-08-26T05:36:47.346Z,100798.66
2022-08-26T05:39:14.222Z,100795.38
2022-08-26T05:41:43.124Z,100801.31
2022-08-26T05:44:15.504Z,100801.16
2022-08-26T05:46:44.666Z,100800.75
2022-08-26T05:49:14.077Z,100800.59
2022-08-26T05:51:45.178Z,100803.38
2022-08-26T05:54:13.563Z,100791.25
2022-08-26T05:56:40.485Z,100801.75
2022-08-26T05:59:15.154Z,100804.16
2022-08-26T06:01:43.755Z,100801.78
2022-08-26T06:04:12.094Z,100797.25
2022-08-26T06:06:41.636Z,100808.03
2022-08-26T06:09:11.085Z,100802.31
2022-08-26T06:11:38.804Z,100796.41
2022-08-26T06:14:07.826Z,100809.16
2022-08-26T06:16:40.906Z,100809.16
2022-08-26T06:19:12.048Z,100812.72
2022-08-26T06:21:41.328Z,100804.03
2022-08-26T06:24:32.971Z,100805.56
2022-08-26T06:27:09.534Z,100801.66
2022-08-26T06:29:38.810Z,100801.75
2022-08-26T06:32:06.744Z,100806.66
2022-08-26T06:34:34.094Z,100808.59
2022-08-26T06:37:06.296Z,100813.22
2022-08-26T06:39:33.779Z,100815.59
2022-08-26T06:42:02.754Z,100812.81
2022-08-26T06:44:33.953Z,100810.28
2022-08-26T06:47:02.133Z,100821.19
2022-08-26T06:49:29.042Z,100823.53
2022-08-26T06:52:00.090Z,100832.13
2022-08-26T06:54:30.694Z,100828.09
2022-08-26T06:56:57.657Z,100821.53
2022-08-26T06:59:25.598Z,100823.75
2022-08-26T07:01:53.487Z,100832.06
2022-08-26T07:04:23.202Z,100830.78
2022-08-26T07:06:53.569Z,100830.41
2022-08-26T07:09:27.054Z,100828.53
2022-08-26T07:11:58.513Z,100837.22
2022-08-26T07:14:26.497Z,100820.66
2022-08-26T07:16:54.391Z,100831.88
2022-08-26T07:19:30.281Z,100829.78
2022-08-26T07:22:01.697Z,100833.16
2022-08-26T07:24:29.414Z,100829.13
2022-08-26T07:27:06.142Z,100839.56
2022-08-26T07:29:35.026Z,100846.13
2022-08-26T07:32:03.314Z,100841.03
2022-08-26T07:34:32.289Z,100838.28
2022-08-26T07:37:00.681Z,100848.66
2022-08-26T07:39:28.744Z,100854.63
2022-08-26T07:42:01.333Z,100857.63
2022-08-26T07:44:29.547Z,100863.78
2022-08-26T07:46:56.521Z,100866.72
2022-08-26T07:49:26.713Z,100868.16
2022-08-26T07:51:55.411Z,100859.00
2022-08-26T07:54:26.889Z,100863.19
2022-08-26T07:56:54.699Z,100875.25
2022-08-26T07:59:23.382Z,100855.88
2022-08-26T08:01:50.590Z,100872.22
2022-08-26T08:04:21.877Z,100868.59
2022-08-26T08:06:54.561Z,100874.16
2022-08-26T08:09:22.400Z,100873.13
2022-08-26T08:11:49.864Z,100868.75
2022-08-26T08:14:20.484Z,100883.88
2022-08-26T08:16:53.603Z,100880.03
2022-08-26T08:19:23.134Z,100882.63
2022-08-26T08:21:50.930Z,100885.16
2022-08-26T08:24:18.437Z,100882.38
2022-08-26T08:26:45.970Z,100875.59
2022-08-26T08:29:13.124Z,100880.31
2022-08-26T08:31:57.969Z,100891.34
2022-08-26T08:34:28.709Z,100886.69
2022-08-26T08:36:57.261Z,100871.59
2022-08-26T08:39:25.974Z,100888.59
2022-08-26T08:42:23.430Z,100879.97
2022-08-26T08:44:56.034Z,100871.31
2022-08-26T08:47:41.999Z,100872.00
2022-08-26T08:50:27.704Z,100872.84
2022-08-26T08:53:13.632Z,100865.03
2022-08-26T08:56:28.627Z,100865.69
2022-08-26T08:59:19.610Z,100866.97
2022-08-26T09:02:14.418Z,100861.53
2022-08-26T09:05:23.928Z,100853.91
2022-08-26T09:08:12.549Z,100854.25
2022-08-26T09:10:49.779Z,100857.06
2022-08-26T09:13:25.197Z,100854.47
2022-08-26T09:16:07.486Z,100859.84
2022-08-26T09:19:23.229Z,100857.59
2022-08-26T09:22:00.195Z,100851.66
2022-08-26T09:24:31.017Z,100860.03
2022-08-26T09:26:59.116Z,100855.56
2022-08-26T09:29:31.066Z,100854.38
2022-08-26T09:32:24.156Z,100851.72
2022-08-26T09:35:09.063Z,100850.50
2022-08-26T09:40:28.287Z,100853.28
2022-08-26T09:43:22.152Z,100853.63
2022-08-26T09:45:59.387Z,100850.66
2022-08-26T09:48:40.604Z,100853.88
2022-08-26T09:51:31.724Z,100853.25
2022-08-26T09:54:03.924Z,100850.41
2022-08-26T09:56:39.733Z,100851.03
2022-08-26T09:59:11.932Z,100853.88
2022-08-26T10:01:42.526Z,100849.19
2022-08-26T10:04:18.665Z,100851.16
2022-08-26T10:07:07.457Z,100855.63
2022-08-26T10:09:39.286Z,100845.09
2022-08-26T10:12:15.336Z,100844.47
2022-08-26T10:14:54.021Z,100845.47
2022-08-26T10:17:46.371Z,100839.31
2022-08-26T10:20:22.826Z,100838.47
2022-08-26T10:23:12.184Z,100833.06
2022-08-26T10:25:55.225Z,100838.13
2022-08-26T10:28:44.409Z,100831.03
2022-08-26T10:31:28.436Z,100828.94
2022-08-26T10:33:58.894Z,100831.75
2022-08-26T10:39:56.825Z,100820.19
2022-08-26T10:42:39.194Z,100819.09
2022-08-26T10:45:15.287Z,100799.97
2022-08-26T10:49:10.713Z,100808.97
2022-08-26T10:51:47.994Z,100804.38
2022-08-26T10:55:14.310Z,100810.50
2022-08-26T10:58:14.691Z,100807.91
2022-08-26T11:01:24.033Z,100803.63
2022-08-26T11:04:05.304Z,100808.03
2022-08-26T11:06:32.696Z,100798.31
2022-08-26T11:09:04.051Z,100795.28
2022-08-26T11:11:40.431Z,100801.00
2022-08-26T11:14:28.520Z,100798.31
2022-08-26T11:16:59.735Z,100800.34
2022-08-26T11:19:59.584Z,100799.41
2022-08-26T11:22:47.572Z,100782.81
2022-08-26T11:25:29.978Z,100785.50
2022-08-26T11:28:01.106Z,100778.19
2022-08-26T11:30:41.009Z,100786.03
2022-08-26T11:33:09.078Z,100776.19
2022-08-26T11:35:37.322Z,100775.28
2022-08-26T11:38:20.596Z,100770.47
2022-08-26T11:41:10.991Z,100779.50
2022-08-26T11:43:40.727Z,100783.97
2022-08-26T11:46:13.003Z,100782.03
2022-08-26T11:48:42.923Z,100774.69
2022-08-26T11:51:21.601Z,100767.66
2022-08-26T11:53:49.645Z,100774.88
2022-08-26T11:56:31.660Z,100768.00
2022-08-26T11:59:03.393Z,100759.66
2022-08-26T12:01:35.750Z,100759.91
2022-08-26T12:04:06.294Z,100754.69
2022-08-26T12:06:48.017Z,100745.81
2022-08-26T12:09:25.875Z,100749.28
2022-08-26T12:11:54.168Z,100741.72
2022-08-26T12:14:27.704Z,100738.88
2022-08-26T12:16:55.234Z,100735.59
2022-08-26T12:19:28.795Z,100731.22
2022-08-26T12:22:20.952Z,100722.28
2022-08-26T12:24:58.662Z,100719.16
2022-08-26T12:27:29.830Z,100723.69
2022-08-26T12:30:06.760Z,100717.09
2022-08-26T12:32:57.279Z,100712.06
2022-08-26T12:35:25.015Z,100710.19
2022-08-26T12:37:54.019Z,100712.72
2022-08-26T12:40:43.135Z,100709.97
2022-08-26T12:43:15.896Z,100710.94
2022-08-26T12:45:59.899Z,100720.66
2022-08-26T12:48:32.863Z,100713.44
2022-08-26T12:51:00.919Z,100709.66
2022-08-26T12:53:34.562Z,100715.13
2022-08-26T12:56:06.266Z,100709.91
2022-08-26T12:58:39.500Z,100713.63
2022-08-26T13:01:06.686Z,100717.06
2022-08-26T13:03:45.434Z,100717.78
2022-08-26T13:06:25.905Z,100714.03
2022-08-26T13:08:57.662Z,100713.44
2022-08-26T13:11:34.040Z,100710.19
2022-08-26T13:14:09.352Z,100726.22
2022-08-26T13:16:39.313Z,100727.19
2022-08-26T13:19:11.754Z,100727.72
2022-08-26T13:21:57.573Z,100720.81
2022-08-26T13:24:44.790Z,100735.13
2022-08-26T13:27:14.322Z,100724.97
2022-08-26T13:29:41.955Z,100730.72
2022-08-26T13:32:09.867Z,100716.63
2022-08-26T13:34:38.724Z,100734.09
2022-08-26T13:37:07.102Z,100713.63
2022-08-26T13:39:34.326Z,100704.06
2022-08-26T13:42:01.387Z,100702.66
2022-08-26T13:44:28.286Z,100706.00
2022-08-26T13:46:55.205Z,100715.19
2022-08-26T13:49:22.660Z,100716.63
2022-08-26T13:51:49.654Z,100729.22
2022-08-26T13:54:16.551Z,100730.25
2022-08-26T13:56:43.683Z,100744.78
2022-08-26T13:59:10.626Z,100736.75
2022-08-26T14:01:39.731Z,100734.78
2022-08-26T14:04:07.054Z,100715.19
2022-08-26T14:06:34.033Z,100713.28
2022-08-26T14:09:00.995Z,100711.59
2022-08-26T14:11:29.642Z,100726.88
2022-08-26T14:14:08.524Z,100743.06
2022-08-26T14:16:38.875Z,100742.22
2022-08-26T14:19:25.739Z,100743.31
2022-08-26T14:21:52.894Z,100729.06
2022-08-26T14:24:20.417Z,100739.66
2022-08-26T14:26:48.457Z,100751.94
2022-08-26T14:29:16.786Z,100752.53
2022-08-26T14:31:44.333Z,100753.94
2022-08-26T14:34:13.960Z,100755.13
2022-08-26T14:36:40.940Z,100756.53
2022-08-26T14:39:11.238Z,100752.63
2022-08-26T14:41:54.323Z,100753.91
2022-08-26T14:44:31.190Z,100754.22
2022-08-26T14:47:02.248Z,100759.66
2022-08-26T14:49:31.082Z,100752.44
2022-08-26T14:51:58.023Z,100739.94
2022-08-26T14:54:26.431Z,100747.78
2022-08-26T14:57:07.680Z,100735.06
2022-08-26T14:59:39.827Z,100735.91
2022-08-26T15:02:10.540Z,100754.06
2022-08-26T15:04:41.424Z,100761.41
2022-08-26T15:07:09.370Z,100772.13
2022-08-26T15:09:39.990Z,100798.47
2022-08-26T15:12:07.066Z,100816.63
2022-08-26T15:14:34.539Z,100795.41
2022-08-26T15:17:01.531Z,100799.06
2022-08-26T15:19:28.614Z,100826.38
2022-08-26T15:21:56.599Z,100848.25
2022-08-26T15:24:25.974Z,100831.59
2022-08-26T15:26:53.229Z,100863.66
2022-08-26T15:29:22.192Z,100866.34
2022-08-26T15:31:49.116Z,100842.06
2022-08-26T15:34:17.169Z,100856.78
2022-08-26T15:36:46.684Z,100834.34
2022-08-26T15:39:16.248Z,100846.91
2022-08-26T15:41:43.235Z,100827.97
2022-08-26T15:44:14.284Z,100840.97
2022-08-26T15:46:42.500Z,100843.50
2022-08-26T15:49:16.913Z,100845.06
2022-08-26T15:51:49.070Z,100823.06
2022-08-26T15:54:19.792Z,100828.72
2022-08-26T15:56:49.055Z,100836.81
2022-08-26T15:59:16.843Z,100832.38
2022-08-26T16:01:44.586Z,100825.34
2022-08-26T16:04:12.552Z,100823.16
2022-08-26T16:06:42.374Z,100821.69
2022-08-26T16:09:10.463Z,100823.41
2022-08-26T16:11:38.465Z,100818.94
2022-08-26T16:14:06.110Z,100811.22
2022-08-26T16:16:33.172Z,100806.75
2022-08-26T16:19:03.277Z,100797.34
2022-08-26T16:21:34.581Z,100802.03
2022-08-26T16:24:01.510Z,100799.88
2022-08-26T16:26:32.861Z,100787.75
2022-08-26T16:29:03.364Z,100784.50
2022-08-26T16:31:30.563Z,100788.66
2022-08-26T16:33:57.539Z,100773.19
2022-08-26T16:36:24.831Z,100766.72
2022-08-26T16:38:55.561Z,100783.84
2022-08-26T16:41:28.582Z,100778.53
2022-08-26T16:43:56.511Z,100776.47
2022-08-26T16:46:26.166Z,100771.69
2022-08-26T16:48:56.635Z,100772.53
2022-08-26T16:51:27.051Z,100775.81
2022-08-26T16:53:56.182Z,100774.78
2022-08-26T16:56:34.089Z,100786.56
2022-08-26T16:59:04.221Z,100788.50
2022-08-26T17:01:31.252Z,100795.13
2022-08-26T17:03:58.271Z,100800.69
2022-08-26T17:06:25.373Z,100803.03
2022-08-26T17:08:52.997Z,100793.28
2022-08-26T17:11:19.914Z,100794.34
2022-08-26T17:13:46.863Z,100798.41
2022-08-26T17:16:15.209Z,100806.09
2022-08-26T17:18:42.198Z,100815.69
2022-08-26T17:21:12.817Z,100801.66
2022-08-26T17:23:41.813Z,100818.69
2022-08-26T17:26:11.783Z,100817.63
2022-08-26T17:28:39.510Z,100823.13
2022-08-26T17:31:10.178Z,100828.84
2022-08-26T17:33:37.773Z,100832.91
2022-08-26T17:36:07.057Z,100839.56
2022-08-26T17:38:34.930Z,100840.19
2022-08-26T17:41:02.618Z,100844.66
2022-08-26T17:43:29.704Z,100850.59
2022-08-26T17:46:06.803Z,100854.63
2022-08-26T17:48:38.698Z,100851.88
2022-08-26T17:51:12.224Z,100838.28
2022-08-26T17:53:41.193Z,100835.09
2022-08-26T17:56:13.051Z,100845.28
2022-08-26T17:58:41.035Z,100831.91
2022-08-26T18:01:22.422Z,100847.63
2022-08-26T18:03:50.138Z,100843.38
2022-08-26T18:06:17.423Z,100843.78
2022-08-26T18:08:45.206Z,100842.72
2022-08-26T18:11:17.186Z,100848.47
2022-08-26T18:13:47.031Z,100845.06
2022-08-26T18:16:16.518Z,100848.03
2022-08-26T18:18:43.826Z,100851.16
2022-08-26T18:21:18.387Z,100856.47
2022-08-26T18:23:46.929Z,100857.53
2022-08-26T18:26:35.552Z,100846.22
2022-08-26T18:29:04.177Z,100859.13
2022-08-26T18:31:31.238Z,100844.81
2022-08-26T18:34:01.339Z,100859.63
2022-08-26T18:36:33.804Z,100857.25
2022-08-26T18:39:03.076Z,100858.47
2022-08-26T18:41:38.755Z,100865.69
2022-08-26T18:44:06.188Z,100861.44
2022-08-26T18:46:34.841Z,100866.75
2022-08-26T18:49:02.010Z,100869.28
2022-08-26T18:51:31.939Z,100872.25
2022-08-26T18:54:01.300Z,100882.66
2022-08-26T18:56:29.144Z,100883.28
2022-08-26T18:58:56.098Z,100902.75
2022-08-26T19:01:27.096Z,100895.31
2022-08-26T19:03:56.574Z,100903.75
2022-08-26T19:06:24.804Z,100900.56
2022-08-26T19:08:51.800Z,100905.41
2022-08-26T19:11:32.603Z,100902.00
2022-08-26T19:14:10.147Z,100899.00
2022-08-26T19:16:37.575Z,100909.56
2022-08-26T19:19:05.231Z,100909.72
2022-08-26T19:21:34.376Z,100912.66
2022-08-26T19:24:04.423Z,100908.53
2022-08-26T19:26:32.058Z,100911.56
2022-08-26T19:28:59.459Z,100914.06
2022-08-26T19:31:27.040Z,100914.25
2022-08-26T19:33:54.088Z,100918.38
2022-08-26T19:36:23.542Z,100928.28
2022-08-26T19:38:51.220Z,100918.44
2022-08-26T19:41:36.907Z,100920.31
2022-08-26T19:44:12.981Z,100915.94
2022-08-26T19:46:40.714Z,100926.22
2022-08-26T19:49:08.295Z,100915.50
2022-08-26T19:51:36.825Z,100920.44
2022-08-26T19:54:04.374Z,100926.19
2022-08-26T19:56:32.047Z,100930.13
2022-08-26T19:58:59.251Z,100925.06
2022-08-26T20:01:26.318Z,100927.44
2022-08-26T20:03:53.292Z,100923.38
2022-08-26T20:06:20.785Z,100926.22
2022-08-26T20:08:50.661Z,100917.88
2022-08-26T20:11:18.972Z,100916.84
2022-08-26T20:13:47.911Z,100920.44
2022-08-26T20:16:16.889Z,100930.41
2022-08-26T20:19:08.661Z,100924.63
2022-08-26T20:21:56.596Z,100886.41
2022-08-26T20:24:28.242Z,100926.94
2022-08-26T20:26:56.585Z,100905.47
2022-08-26T20:29:23.611Z,100936.16
2022-08-26T20:31:52.522Z,100940.25
2022-08-26T20:34:20.742Z,100935.69
2022-08-26T20:36:49.772Z,100934.94
2022-08-26T20:39:20.835Z,100934.34
2022-08-26T20:41:48.043Z,100938.03
2022-08-26T20:44:16.583Z,100950.63
2022-08-26T20:46:44.256Z,100944.56
2022-08-26T20:49:11.391Z,100947.66
2022-08-26T20:51:38.420Z,100948.69
2022-08-26T20:54:07.098Z,100961.56
2022-08-26T20:56:36.268Z,100961.09
2022-08-26T20:59:05.304Z,100967.97
2022-08-26T21:01:34.887Z,100962.88
2022-08-26T21:04:05.426Z,100965.16
2022-08-26T21:06:36.628Z,100962.75
2022-08-26T21:09:07.061Z,100966.19
2022-08-26T21:11:35.878Z,100968.94
2022-08-26T21:14:16.220Z,100968.25
2022-08-26T21:16:45.372Z,100959.91
2022-08-26T21:19:15.209Z,100963.19
2022-08-26T21:21:42.590Z,100973.50
2022-08-26T21:24:10.267Z,100973.66
2022-08-26T21:26:37.871Z,100961.53
2022-08-26T21:29:06.685Z,100973.38
2022-08-26T21:31:34.933Z,100966.91
2022-08-26T21:34:01.922Z,100971.53
2022-08-26T21:36:28.894Z,100971.22
2022-08-26T21:38:57.945Z,100974.16
2022-08-26T21:41:26.383Z,100979.81
2022-08-26T21:43:57.928Z,100980.50
2022-08-26T21:46:28.344Z,100982.56
2022-08-26T21:49:02.232Z,100993.72
2022-08-26T21:51:33.173Z,100991.31
2022-08-26T21:54:02.228Z,100994.59
2022-08-26T21:56:32.251Z,100989.66
2022-08-26T21:59:00.826Z,100984.38
2022-08-26T22:01:33.690Z,100988.84
2022-08-26T22:04:05.560Z,100985.59
2022-08-26T22:06:38.764Z,100995.84
2022-08-26T22:09:05.796Z,101003.72
2022-08-26T22:11:32.722Z,100995.78
2022-08-26T22:13:59.819Z,100995.22
2022-08-26T22:16:28.773Z,100997.06
2022-08-26T22:18:56.220Z,100997.63
2022-08-26T22:21:25.956Z,100996.16
2022-08-26T22:23:58.017Z,100998.75
2022-08-26T22:26:29.523Z,100998.13
2022-08-26T22:28:59.097Z,100989.63
2022-08-26T22:31:33.669Z,100995.97
2022-08-26T22:34:08.981Z,100994.13
2022-08-26T22:36:43.145Z,100997.69
2022-08-26T22:39:13.868Z,101002.97
2022-08-26T22:41:43.136Z,101002.97
2022-08-26T22:44:11.917Z,101006.09
2022-08-26T22:46:40.015Z,101002.69
2022-08-26T22:49:10.148Z,100998.41
2022-08-26T22:51:37.169Z,100996.41
2022-08-26T22:54:05.461Z,100990.06
2022-08-26T22:56:32.381Z,100988.88
2022-08-26T22:58:59.303Z,100989.41
2022-08-26T23:01:26.847Z,100995.59
2022-08-26T23:03:53.820Z,101001.94
2022-08-26T23:06:20.802Z,101000.03
2022-08-26T23:08:48.015Z,100993.88
2022-08-26T23:11:15.495Z,100995.94
2022-08-26T23:13:42.619Z,100996.50
2022-08-26T23:16:12.256Z,100997.53
2022-08-26T23:18:40.672Z,101000.25
2022-08-26T23:21:07.631Z,100998.34
2022-08-26T23:23:35.228Z,100993.75
2022-08-26T23:26:05.990Z,100994.13
2022-08-26T23:28:34.947Z,100994.66
2022-08-26T23:31:02.074Z,100987.28
2022-08-26T23:33:49.044Z,100993.97
2022-08-26T23:36:18.023Z,100990.53
2022-08-26T23:38:48.147Z,100992.78
2022-08-26T23:41:22.619Z,100986.47
2022-08-26T23:43:50.225Z,100980.81
2022-08-26T23:46:17.793Z,100982.53
2022-08-26T23:48:45.078Z,100980.97
2022-08-26T23:51:31.156Z,100965.56
2022-08-26T23:53:58.483Z,100964.72
2022-08-26T23:56:25.602Z,100967.47
2022-08-26T23:58:54.225Z,100957.69
